Time;durP1;ratioP1;P1;durP2;ratioP2;P2;SDS_P1;SDS_P2;PMS_P1;PMS_P2;Temp;Humidity;BMP_temperature;BMP_pressure;BME280_temperature;BME280_humidity;BME280_pressure;Samples;Min_cycle;Max_cycle;Signal;HPM_P1;HPM_P2
2022/07/11 00:01:38;;;;;;;5.80;2.37;;;17.70;99.90;;;;;;5096488;28;20186;-41
2022/07/11 00:04:04;;;;;;;8.17;2.73;;;17.60;99.90;;;;;;5115777;28;20335;-39
2022/07/11 00:06:29;;;;;;;4.50;2.27;;;17.70;99.90;;;;;;5114683;28;20193;-40
2022/07/11 00:08:55;;;;;;;3.67;2.23;;;17.60;99.90;;;;;;5114494;28;20222;-41
2022/07/11 00:11:20;;;;;;;5.23;2.60;;;17.60;99.90;;;;;;5114436;28;20676;-41
2022/07/11 00:13:46;;;;;;;2.20;2.00;;;17.60;99.90;;;;;;5114395;28;20246;-38
2022/07/11 00:16:13;;;;;;;3.90;2.00;;;17.60;99.90;;;;;;5114378;28;20645;-39
2022/07/11 00:18:39;;;;;;;5.20;2.67;;;17.60;99.90;;;;;;5114728;28;20590;-40
2022/07/11 00:21:05;;;;;;;4.87;2.50;;;17.60;99.90;;;;;;5114181;28;20194;-41
2022/07/11 00:23:30;;;;;;;5.50;2.30;;;17.60;99.90;;;;;;5114419;28;20509;-40
2022/07/11 00:25:56;;;;;;;3.70;2.27;;;17.60;99.90;;;;;;5114225;28;20224;-40
2022/07/11 00:28:21;;;;;;;2.50;2.30;;;17.50;99.90;;;;;;5114177;28;20163;-40
2022/07/11 00:30:47;;;;;;;3.03;2.30;;;17.50;99.90;;;;;;5114013;28;20214;-40
2022/07/11 00:33:13;;;;;;;8.53;2.50;;;17.50;99.90;;;;;;5114341;28;20186;-41
2022/07/11 00:35:39;;;;;;;4.00;2.33;;;17.50;99.90;;;;;;5113866;28;20189;-41
2022/07/11 00:38:04;;;;;;;4.60;2.30;;;17.50;99.90;;;;;;5114213;28;20163;-39
2022/07/11 00:40:30;;;;;;;4.93;2.40;;;17.50;99.90;;;;;;5113998;28;20212;-41
2022/07/11 00:42:56;;;;;;;2.83;2.30;;;17.50;99.90;;;;;;5114929;28;20186;-44
2022/07/11 00:45:21;;;;;;;6.03;2.23;;;17.50;99.90;;;;;;5116003;28;20184;-44
2022/07/11 00:47:47;;;;;;;6.50;2.60;;;17.50;99.90;;;;;;5116081;28;20263;-45
2022/07/11 00:50:14;;;;;;;9.13;2.80;;;17.40;99.90;;;;;;5115367;28;20209;-44
2022/07/11 00:52:40;;;;;;;3.33;2.60;;;17.40;99.90;;;;;;5116081;28;20182;-43
2022/07/11 00:55:09;;;;;;;3.20;2.20;;;17.30;99.90;;;;;;5117008;28;20182;-44
2022/07/11 00:57:37;;;;;;;8.40;2.30;;;17.30;99.90;;;;;;5097874;28;20254;-44
2022/07/11 01:00:04;;;;;;;5.63;2.93;;;17.30;99.90;;;;;;5097246;28;20239;-44
2022/07/11 01:02:29;;;;;;;4.17;2.60;;;17.40;99.90;;;;;;5117113;28;20190;-44
2022/07/11 01:04:56;;;;;;;6.80;2.83;;;17.30;99.90;;;;;;5115953;28;20179;-44
2022/07/11 01:07:21;;;;;;;5.10;2.33;;;17.30;99.90;;;;;;5116454;28;20178;-45
2022/07/11 01:09:47;;;;;;;3.20;2.60;;;17.30;99.90;;;;;;5116019;28;20213;-44
2022/07/11 01:12:13;;;;;;;6.60;2.27;;;17.30;99.90;;;;;;5117851;28;20673;-44
2022/07/11 01:14:38;;;;;;;5.30;2.63;;;17.30;99.90;;;;;;5115793;28;20178;-45
2022/07/11 01:17:04;;;;;;;3.50;2.37;;;17.30;99.90;;;;;;5114649;28;20201;-43
2022/07/11 01:19:29;;;;;;;9.10;2.70;;;17.30;99.90;;;;;;5115463;28;20200;-44
2022/07/11 01:21:59;;;;;;;7.33;2.50;;;17.30;99.90;;;;;;5115428;28;20336;-43
2022/07/11 01:24:25;;;;;;;2.23;2.03;;;17.30;99.90;;;;;;5114613;28;20174;-44
2022/07/11 01:26:52;;;;;;;4.23;2.40;;;17.30;99.90;;;;;;5114708;28;20184;-44
2022/07/11 01:29:17;;;;;;;5.20;2.80;;;17.20;99.90;;;;;;5114662;28;20198;-44
2022/07/11 01:31:44;;;;;;;3.53;2.53;;;17.20;99.90;;;;;;5114733;28;20214;-42
2022/07/11 01:34:10;;;;;;;4.80;2.30;;;17.20;99.90;;;;;;5114975;28;20178;-44
2022/07/11 01:36:36;;;;;;;4.23;2.50;;;17.20;99.90;;;;;;5114336;28;20260;-43
2022/07/11 01:39:02;;;;;;;2.43;2.23;;;17.10;99.90;;;;;;5114536;28;20210;-44
2022/07/11 01:41:27;;;;;;;5.70;2.80;;;17.10;99.90;;;;;;5114609;28;20178;-43
2022/07/11 01:43:53;;;;;;;3.97;2.67;;;17.10;99.90;;;;;;5114670;28;20186;-42
2022/07/11 01:46:19;;;;;;;4.33;2.60;;;17.10;99.90;;;;;;5115029;28;20182;-43
2022/07/11 01:48:45;;;;;;;4.87;3.00;;;17.10;99.90;;;;;;5117906;28;20238;-43
2022/07/11 01:51:10;;;;;;;5.53;2.73;;;17.00;99.90;;;;;;5117967;28;20233;-44
2022/07/11 01:53:36;;;;;;;4.63;2.80;;;17.00;99.90;;;;;;5117747;28;20193;-43
2022/07/11 01:56:02;;;;;;;5.73;2.80;;;17.00;99.90;;;;;;5117888;28;20178;-43
2022/07/11 01:58:30;;;;;;;5.57;2.63;;;17.00;99.90;;;;;;5118294;28;20622;-43
2022/07/11 02:00:56;;;;;;;4.60;2.73;;;17.00;99.90;;;;;;5117969;28;20263;-43
2022/07/11 02:03:22;;;;;;;3.50;2.40;;;16.90;99.90;;;;;;5117934;28;20174;-42
2022/07/11 02:05:47;;;;;;;8.07;3.00;;;16.80;99.90;;;;;;5117291;28;20188;-43
2022/07/11 02:08:13;;;;;;;4.47;3.10;;;16.80;99.90;;;;;;5116839;28;20182;-42
2022/07/11 02:10:43;;;;;;;4.40;2.77;;;16.70;99.90;;;;;;5116656;28;20277;-43
2022/07/11 02:13:09;;;;;;;6.67;2.80;;;16.70;99.90;;;;;;5117058;28;20521;-43
2022/07/11 02:15:35;;;;;;;4.73;2.50;;;16.60;99.90;;;;;;5116946;28;20186;-43
2022/07/11 02:18:01;;;;;;;5.27;2.97;;;16.50;99.90;;;;;;5116918;28;20590;-42
2022/07/11 02:20:27;;;;;;;4.20;2.90;;;16.50;99.90;;;;;;5116818;28;20201;-42
2022/07/11 02:22:53;;;;;;;5.07;2.67;;;16.40;99.90;;;;;;5116651;28;20159;-40
2022/07/11 02:25:19;;;;;;;5.47;3.47;;;16.40;99.90;;;;;;5098305;28;20174;-38
2022/07/11 02:27:45;;;;;;;5.27;3.20;;;16.30;99.90;;;;;;5116472;28;20638;-39
2022/07/11 02:30:11;;;;;;;5.03;3.10;;;16.30;99.90;;;;;;5116533;28;20287;-40
2022/07/11 02:32:37;;;;;;;3.57;2.73;;;16.20;99.90;;;;;;5116270;28;20216;-39
2022/07/11 02:35:04;;;;;;;5.13;3.03;;;16.20;99.90;;;;;;5116392;28;20642;-39
2022/07/11 02:37:29;;;;;;;4.33;3.00;;;16.10;99.90;;;;;;5116149;28;20194;-40
2022/07/11 02:39:55;;;;;;;4.87;2.97;;;16.10;99.90;;;;;;5116394;28;20190;-40
2022/07/11 02:42:21;;;;;;;6.13;2.80;;;16.00;99.90;;;;;;5116147;28;20181;-40
2022/07/11 02:44:46;;;;;;;6.53;3.70;;;16.00;99.90;;;;;;5116059;28;20178;-39
2022/07/11 02:47:14;;;;;;;5.77;3.40;;;15.90;99.90;;;;;;5116250;28;20213;-40
2022/07/11 02:49:39;;;;;;;5.47;2.83;;;15.90;99.90;;;;;;5116058;28;20194;-40
2022/07/11 02:52:05;;;;;;;5.67;3.47;;;15.80;99.90;;;;;;5097676;28;20206;-41
2022/07/11 02:54:31;;;;;;;6.10;3.37;;;15.80;99.90;;;;;;5115958;28;20181;-40
2022/07/11 02:56:57;;;;;;;6.77;3.37;;;15.80;99.90;;;;;;5097620;28;20377;-39
2022/07/11 02:59:23;;;;;;;6.23;3.40;;;15.70;99.90;;;;;;5114761;28;20202;-40
2022/07/11 03:01:49;;;;;;;6.77;3.13;;;15.60;99.90;;;;;;5097754;28;20185;-38
2022/07/11 03:04:15;;;;;;;6.33;3.57;;;15.60;99.90;;;;;;5116135;28;20189;-40
2022/07/11 03:06:41;;;;;;;4.83;3.47;;;15.50;99.90;;;;;;5115977;28;20178;-40
2022/07/11 03:09:08;;;;;;;5.60;3.20;;;15.50;99.90;;;;;;5115841;28;20198;-40
2022/07/11 03:11:34;;;;;;;6.07;3.67;;;15.40;99.90;;;;;;5097332;28;20206;-38
2022/07/11 03:14:00;;;;;;;5.63;4.10;;;15.40;99.90;;;;;;5115649;28;20174;-40
2022/07/11 03:16:27;;;;;;;5.23;3.77;;;15.40;99.90;;;;;;5097378;28;20177;-40
2022/07/11 03:18:53;;;;;;;5.93;3.70;;;15.30;99.90;;;;;;5115701;28;20601;-38
2022/07/11 03:21:18;;;;;;;6.63;3.47;;;15.30;99.90;;;;;;5115793;28;20209;-39
2022/07/11 03:23:44;;;;;;;4.43;3.77;;;15.20;99.90;;;;;;5115407;28;20638;-39
2022/07/11 03:26:09;;;;;;;5.27;3.53;;;15.20;99.90;;;;;;5115642;28;20186;-40
2022/07/11 03:28:35;;;;;;;6.23;4.33;;;15.20;99.90;;;;;;5116008;28;20189;-39
2022/07/11 03:31:02;;;;;;;6.97;3.97;;;15.20;99.90;;;;;;5115152;28;20220;-38
2022/07/11 03:33:27;;;;;;;5.27;3.70;;;15.10;99.90;;;;;;5116320;28;20543;-40
2022/07/11 03:35:53;;;;;;;7.27;4.17;;;15.10;99.90;;;;;;5115316;28;20190;-39
2022/07/11 03:38:20;;;;;;;5.50;3.97;;;15.00;99.90;;;;;;5115380;28;20249;-40
2022/07/11 03:40:47;;;;;;;4.23;3.77;;;15.00;99.90;;;;;;5114837;28;20194;-40
2022/07/11 03:43:12;;;;;;;4.30;3.90;;;15.00;99.90;;;;;;5115038;28;20641;-40
2022/07/11 03:45:38;;;;;;;11.63;4.37;;;15.00;99.90;;;;;;5114980;28;20186;-40
2022/07/11 03:48:04;;;;;;;5.53;3.77;;;14.90;99.90;;;;;;5114919;28;20178;-41
2022/07/11 03:50:30;;;;;;;7.07;3.80;;;14.90;99.90;;;;;;5114786;28;20680;-40
2022/07/11 03:52:56;;;;;;;6.63;4.43;;;14.90;99.90;;;;;;5115356;28;20181;-38
2022/07/11 03:55:22;;;;;;;4.93;3.80;;;14.90;99.90;;;;;;5115041;28;20203;-39
2022/07/11 03:57:51;;;;;;;6.47;3.77;;;14.90;99.90;;;;;;5115272;28;20174;-38
2022/07/11 04:00:19;;;;;;;8.37;3.70;;;14.80;99.90;;;;;;5114960;28;20689;-40
2022/07/11 04:02:46;;;;;;;4.60;3.70;;;14.90;99.90;;;;;;5114976;28;20225;-40
2022/07/11 04:05:12;;;;;;;6.07;3.93;;;14.80;99.90;;;;;;5114600;28;20710;-40
2022/07/11 04:07:38;;;;;;;6.47;4.40;;;14.80;99.90;;;;;;5115210;28;20264;-40
2022/07/11 04:10:04;;;;;;;7.50;3.67;;;14.90;99.90;;;;;;5114267;28;20564;-39
2022/07/11 04:12:30;;;;;;;6.80;4.17;;;14.80;99.90;;;;;;5116633;28;20205;-39
2022/07/11 04:14:55;;;;;;;11.37;3.97;;;14.80;99.90;;;;;;5115150;28;20231;-41
2022/07/11 04:17:21;;;;;;;13.97;4.77;;;14.80;99.90;;;;;;5114541;28;20230;-39
2022/07/11 04:19:46;;;;;;;12.67;4.43;;;14.80;99.90;;;;;;5114587;28;20305;-40
2022/07/11 04:22:12;;;;;;;9.13;4.87;;;14.80;99.90;;;;;;5114714;28;20181;-39
2022/07/11 04:24:38;;;;;;;7.23;4.27;;;14.80;99.90;;;;;;5114513;28;20186;-39
2022/07/11 04:27:04;;;;;;;7.20;4.70;;;14.90;99.90;;;;;;5114260;28;20198;-41
2022/07/11 04:29:30;;;;;;;6.13;4.77;;;14.90;99.90;;;;;;5114120;28;20282;-41
2022/07/11 04:31:55;;;;;;;8.37;4.67;;;14.90;99.90;;;;;;5114419;28;20617;-39
2022/07/11 04:34:21;;;;;;;5.63;3.97;;;14.90;99.90;;;;;;5095870;28;20542;-41
2022/07/11 04:36:47;;;;;;;6.73;4.53;;;14.90;99.90;;;;;;5114081;28;20662;-40
2022/07/11 04:39:13;;;;;;;8.13;4.33;;;14.90;99.90;;;;;;5113958;28;20194;-39
2022/07/11 04:41:38;;;;;;;7.53;4.73;;;14.90;99.90;;;;;;5095858;28;20181;-41
2022/07/11 04:44:04;;;;;;;9.73;4.57;;;15.00;99.90;;;;;;5115886;28;20674;-41
2022/07/11 04:46:31;;;;;;;6.27;3.60;;;15.00;99.90;;;;;;5116388;28;20642;-39
2022/07/11 04:48:57;;;;;;;6.77;4.13;;;15.10;99.90;;;;;;5095516;28;20178;-40
2022/07/11 04:51:24;;;;;;;5.37;3.70;;;15.10;99.90;;;;;;5114080;28;20683;-41
2022/07/11 04:53:50;;;;;;;6.47;3.47;;;15.20;99.90;;;;;;5113855;28;20174;-40
2022/07/11 04:56:15;;;;;;;4.80;3.70;;;15.20;99.90;;;;;;5114116;28;20178;-40
2022/07/11 04:58:41;;;;;;;5.93;3.80;;;15.30;99.90;;;;;;5114403;28;20173;-41
2022/07/11 05:01:06;;;;;;;6.37;4.03;;;15.40;99.90;;;;;;5114837;28;20204;-39
2022/07/11 05:03:33;;;;;;;5.47;3.77;;;15.40;99.90;;;;;;5113753;28;20180;-40
2022/07/11 05:05:58;;;;;;;5.13;3.63;;;15.50;99.90;;;;;;5095922;28;20178;-40
2022/07/11 05:08:24;;;;;;;5.40;4.07;;;15.60;99.90;;;;;;5115392;28;20181;-38
2022/07/11 05:10:49;;;;;;;6.47;3.83;;;15.60;99.90;;;;;;5115341;28;20209;-40
2022/07/11 05:13:15;;;;;;;5.60;3.53;;;15.70;99.90;;;;;;5113968;28;20174;-41
2022/07/11 05:15:41;;;;;;;6.37;3.50;;;15.80;99.90;;;;;;5113672;28;20169;-41
2022/07/11 05:18:06;;;;;;;6.70;3.33;;;15.80;99.90;;;;;;5113579;28;20549;-41
2022/07/11 05:20:32;;;;;;;7.13;3.23;;;15.90;99.90;;;;;;5113549;28;20209;-40
2022/07/11 05:22:59;;;;;;;4.13;3.30;;;15.90;99.90;;;;;;5116306;28;20174;-41
2022/07/11 05:25:25;;;;;;;5.90;3.50;;;15.90;99.90;;;;;;5118351;28;20174;-41
2022/07/11 05:27:51;;;;;;;4.43;3.23;;;15.90;99.90;;;;;;5118861;28;20181;-41
2022/07/11 05:30:17;;;;;;;6.57;3.03;;;15.90;99.90;;;;;;5118660;28;20190;-40
2022/07/11 05:32:43;;;;;;;5.90;3.70;;;15.90;99.90;;;;;;5119273;28;20219;-40
2022/07/11 05:35:09;;;;;;;5.60;3.17;;;16.00;99.90;;;;;;5118940;28;20174;-40
2022/07/11 05:37:34;;;;;;;8.33;3.73;;;16.00;99.90;;;;;;5118696;28;20558;-39
2022/07/11 05:40:00;;;;;;;8.97;3.30;;;16.00;99.90;;;;;;5118727;28;20581;-40
2022/07/11 05:42:26;;;;;;;3.73;2.60;;;16.00;99.90;;;;;;5117671;28;20200;-40
2022/07/11 05:44:51;;;;;;;5.87;2.90;;;16.10;99.90;;;;;;5099011;28;20272;-40
2022/07/11 05:47:17;;;;;;;5.90;3.17;;;16.10;99.90;;;;;;5117612;28;20185;-38
2022/07/11 05:49:43;;;;;;;4.47;2.67;;;16.10;99.90;;;;;;5117455;28;20194;-39
2022/07/11 05:52:09;;;;;;;4.57;2.73;;;16.20;99.90;;;;;;5117177;28;20673;-40
2022/07/11 05:54:34;;;;;;;3.73;3.00;;;16.30;99.90;;;;;;5117175;28;20170;-38
2022/07/11 05:57:02;;;;;;;3.07;2.70;;;16.30;99.90;;;;;;5117129;28;20174;-39
2022/07/11 05:59:28;;;;;;;5.23;2.70;;;16.30;99.90;;;;;;5117230;28;20193;-39
2022/07/11 06:01:54;;;;;;;3.97;2.57;;;16.40;99.90;;;;;;5117044;28;20193;-40
2022/07/11 06:04:19;;;;;;;6.50;3.00;;;16.40;99.90;;;;;;5116992;28;20179;-42
2022/07/11 06:06:45;;;;;;;5.23;2.60;;;16.40;99.90;;;;;;5117199;28;20657;-39
2022/07/11 06:09:11;;;;;;;4.07;2.40;;;16.50;99.90;;;;;;5116771;28;20201;-38
2022/07/11 06:11:36;;;;;;;5.97;2.60;;;16.40;99.90;;;;;;5098482;28;20306;-39
2022/07/11 06:14:02;;;;;;;5.23;2.70;;;16.50;99.90;;;;;;5117042;28;20177;-40
2022/07/11 06:16:28;;;;;;;5.23;3.13;;;16.60;99.90;;;;;;5116732;28;20170;-40
2022/07/11 06:18:54;;;;;;;6.60;2.97;;;16.60;99.90;;;;;;5116890;28;20630;-38
2022/07/11 06:21:28;;;;;;;11.13;3.63;;;16.60;99.90;;;;;;5116642;28;20174;-40
2022/07/11 06:23:54;;;;;;;4.93;2.70;;;16.70;99.90;;;;;;5119330;28;20174;-42
2022/07/11 06:26:20;;;;;;;3.97;2.60;;;16.70;99.90;;;;;;5116923;28;20175;-43
2022/07/11 06:28:46;;;;;;;4.33;2.63;;;16.80;99.90;;;;;;5116495;28;20174;-42
2022/07/11 06:31:12;;;;;;;5.63;2.70;;;16.80;99.90;;;;;;5116262;28;20209;-43
2022/07/11 06:33:38;;;;;;;7.20;2.93;;;16.80;99.90;;;;;;5116406;28;20538;-45
2022/07/11 06:36:05;;;;;;;7.47;2.90;;;16.90;99.90;;;;;;5116514;28;20190;-43
2022/07/11 06:38:31;;;;;;;3.20;2.23;;;17.00;99.90;;;;;;5116629;28;20503;-44
2022/07/11 06:40:57;;;;;;;3.67;2.20;;;17.10;99.90;;;;;;5119897;28;20197;-43
2022/07/11 06:43:23;;;;;;;6.40;2.80;;;17.10;99.90;;;;;;5116225;28;20584;-43
2022/07/11 06:45:48;;;;;;;6.33;2.63;;;17.10;99.90;;;;;;5116229;28;20166;-44
2022/07/11 06:48:14;;;;;;;5.47;2.87;;;17.20;99.90;;;;;;5098171;28;20544;-43
2022/07/11 06:50:41;;;;;;;3.13;2.10;;;17.20;99.90;;;;;;5115951;28;20198;-44
2022/07/11 06:53:06;;;;;;;8.93;2.60;;;17.20;99.90;;;;;;5116095;28;20170;-42
2022/07/11 06:55:33;;;;;;;6.27;2.40;;;17.20;99.90;;;;;;5116252;28;20173;-44
2022/07/11 06:57:59;;;;;;;4.97;2.60;;;17.20;99.90;;;;;;5097621;28;20181;-44
2022/07/11 07:00:27;;;;;;;3.80;2.37;;;17.30;99.90;;;;;;5116515;28;20696;-43
2022/07/11 07:02:56;;;;;;;4.93;2.70;;;17.40;99.90;;;;;;5116666;28;20234;-44
2022/07/11 07:05:25;;;;;;;5.70;2.67;;;17.50;99.90;;;;;;5116463;28;20174;-43
2022/07/11 07:07:52;;;;;;;3.97;2.00;;;17.50;99.90;;;;;;5116334;28;20178;-44
2022/07/11 07:10:18;;;;;;;3.57;2.20;;;17.60;99.90;;;;;;5116259;28;20571;-40
2022/07/11 07:12:44;;;;;;;6.00;3.00;;;17.60;99.90;;;;;;5115884;28;20206;-40
2022/07/11 07:15:10;;;;;;;5.57;3.10;;;17.60;99.90;;;;;;5097433;28;20170;-39
2022/07/11 07:17:36;;;;;;;4.07;2.93;;;17.60;99.90;;;;;;5115675;28;20322;-39
2022/07/11 07:20:03;;;;;;;9.17;3.37;;;17.60;99.90;;;;;;5097221;28;20277;-40
2022/07/11 07:22:29;;;;;;;4.00;2.47;;;17.60;99.90;;;;;;5115638;28;20186;-40
2022/07/11 07:24:55;;;;;;;3.17;2.20;;;17.50;99.90;;;;;;5097111;28;20190;-36
2022/07/11 07:27:20;;;;;;;4.50;2.37;;;17.50;99.90;;;;;;5115427;28;20179;-36
2022/07/11 07:29:47;;;;;;;9.13;2.60;;;17.50;99.90;;;;;;5115415;28;20198;-38
2022/07/11 07:32:12;;;;;;;2.90;2.07;;;17.50;99.90;;;;;;5116089;28;20259;-40
2022/07/11 07:34:38;;;;;;;4.50;2.53;;;17.50;99.90;;;;;;5115194;28;20174;-40
2022/07/11 07:37:04;;;;;;;4.33;2.50;;;17.60;99.90;;;;;;5115135;28;20194;-40
2022/07/11 07:39:29;;;;;;;4.93;2.57;;;17.60;99.90;;;;;;5115106;28;20258;-38
2022/07/11 07:41:55;;;;;;;6.43;2.53;;;17.60;99.90;;;;;;5115649;28;20197;-39
2022/07/11 07:44:20;;;;;;;5.27;2.47;;;17.60;99.90;;;;;;5114975;28;20201;-41
2022/07/11 07:46:46;;;;;;;4.97;2.50;;;17.70;99.90;;;;;;5116944;28;20227;-40
2022/07/11 07:49:12;;;;;;;7.23;2.70;;;17.70;99.90;;;;;;5116130;28;20225;-40
2022/07/11 07:51:38;;;;;;;6.33;2.70;;;17.80;99.90;;;;;;5114821;28;20677;-39
2022/07/11 07:54:04;;;;;;;3.40;2.50;;;18.00;99.90;;;;;;5115138;28;20261;-37
2022/07/11 07:56:31;;;;;;;4.93;2.70;;;18.10;99.90;;;;;;5115434;28;20173;-38
2022/07/11 07:58:57;;;;;;;4.13;2.53;;;18.30;99.90;;;;;;5096636;28;20174;-39
2022/07/11 08:01:35;;;;;;;6.37;2.63;;;18.60;99.90;;;;;;5115023;28;20657;-38
2022/07/11 08:04:02;;;;;;;7.00;3.17;;;18.70;99.90;;;;;;5114689;28;20150;-40
2022/07/11 08:06:27;;;;;;;8.10;3.00;;;18.90;99.90;;;;;;5114606;28;20178;-39
2022/07/11 08:08:53;;;;;;;3.70;2.70;;;18.90;99.90;;;;;;5114783;28;20185;-40
2022/07/11 08:11:19;;;;;;;5.90;2.40;;;19.00;99.90;;;;;;5096245;28;20220;-40
2022/07/11 08:13:44;;;;;;;4.17;2.47;;;19.00;99.90;;;;;;5114474;28;20222;-36
2022/07/11 08:16:10;;;;;;;5.27;2.60;;;19.00;99.90;;;;;;5114708;28;20260;-38
2022/07/11 08:18:36;;;;;;;4.50;2.20;;;19.00;99.90;;;;;;5114734;28;20170;-40
2022/07/11 08:21:02;;;;;;;4.07;2.30;;;19.10;99.90;;;;;;5114341;28;20194;-40
2022/07/11 08:23:28;;;;;;;2.50;2.13;;;19.10;99.90;;;;;;5114591;28;20182;-37
2022/07/11 08:25:54;;;;;;;3.10;1.73;;;19.30;99.90;;;;;;5114563;28;20178;-39
2022/07/11 08:28:19;;;;;;;3.83;2.03;;;19.40;99.90;;;;;;5114556;28;20189;-40
2022/07/11 08:30:45;;;;;;;3.27;1.90;;;19.50;99.90;;;;;;5114067;28;20198;-40
2022/07/11 08:33:12;;;;;;;2.57;1.97;;;19.60;99.90;;;;;;5114217;28;20178;-38
2022/07/11 08:35:37;;;;;;;2.40;1.40;;;19.50;99.90;;;;;;5114117;28;20194;-40
2022/07/11 08:38:03;;;;;;;9.03;1.97;;;19.70;99.90;;;;;;5114364;28;20679;-39
2022/07/11 08:40:29;;;;;;;4.03;1.83;;;19.70;99.90;;;;;;5114270;28;20201;-39
2022/07/11 08:42:59;;;;;;;2.37;1.80;;;19.70;99.90;;;;;;5095967;28;20178;-40
2022/07/11 08:45:31;;;;;;;2.97;1.67;;;19.70;99.90;;;;;;5114440;28;20171;-41
2022/07/11 08:48:01;;;;;;;2.30;1.73;;;19.70;99.90;;;;;;5116484;28;20180;-40
2022/07/11 08:50:27;;;;;;;3.90;1.70;;;19.60;99.90;;;;;;5113862;28;20215;-40
2022/07/11 08:52:58;;;;;;;2.40;1.87;;;19.50;99.90;;;;;;5095584;28;20190;-40
2022/07/11 08:55:24;;;;;;;2.83;1.60;;;19.40;99.90;;;;;;5095728;28;20190;-38
2022/07/11 08:57:50;;;;;;;3.03;1.77;;;19.40;99.90;;;;;;5114108;28;20177;-39
2022/07/11 09:00:16;;;;;;;1.73;1.50;;;19.40;99.90;;;;;;5113768;28;20665;-39
2022/07/11 09:02:43;;;;;;;2.27;1.53;;;19.40;99.90;;;;;;5114126;28;20186;-40
2022/07/11 09:05:09;;;;;;;1.80;1.67;;;19.40;99.90;;;;;;5113565;28;20182;-40
2022/07/11 09:07:46;;;;;;;4.03;1.80;;;19.40;99.90;;;;;;5095700;28;20257;-39
2022/07/11 09:10:12;;;;;;;3.27;1.50;;;19.50;99.90;;;;;;5113771;28;20730;-40
2022/07/11 09:13:06;;;;;;;3.40;1.30;;;19.50;99.90;;;;;;5113591;28;20213;-38
2022/07/11 09:15:47;;;;;;;1.17;1.03;;;19.40;99.90;;;;;;5113699;28;20181;-40
2022/07/11 09:18:46;;;;;;;2.03;1.40;;;19.40;99.90;;;;;;5111569;28;20182;-40
2022/07/11 09:26:51;;;;;;;1.77;1.33;;;19.20;99.90;;;;;;5101151;28;20165;-38
2022/07/11 09:29:21;;;;;;;2.13;1.93;;;19.20;99.90;;;;;;5113823;28;20220;-40
2022/07/11 09:31:48;;;;;;;3.13;2.23;;;19.30;99.90;;;;;;5114139;28;20187;-41
2022/07/11 09:34:23;;;;;;;3.43;2.93;;;19.20;99.90;;;;;;5113840;28;20638;-39
2022/07/11 09:36:51;;;;;;;4.43;2.60;;;19.20;99.90;;;;;;5113452;28;20276;-39
2022/07/11 09:39:20;;;;;;;4.60;2.43;;;19.10;99.90;;;;;;5113409;28;20552;-40
2022/07/11 09:41:47;;;;;;;2.80;2.10;;;19.00;99.90;;;;;;5113454;28;20177;-40
2022/07/11 09:44:18;;;;;;;3.80;2.37;;;19.00;99.90;;;;;;5095435;28;20185;-41
2022/07/11 09:46:49;;;;;;;5.50;2.30;;;19.10;99.90;;;;;;5113647;28;20177;-38
2022/07/11 09:49:16;;;;;;;5.93;2.97;;;19.00;99.90;;;;;;5113598;28;20203;-40
2022/07/11 09:51:43;;;;;;;4.67;2.90;;;19.10;99.90;;;;;;5113344;28;20202;-41
2022/07/11 09:54:09;;;;;;;5.90;3.07;;;19.10;99.90;;;;;;5113591;28;20182;-40
2022/07/11 09:56:45;;;;;;;4.17;3.17;;;19.10;99.90;;;;;;5114168;28;20258;-41
2022/07/11 09:59:15;;;;;;;4.17;2.70;;;19.10;99.90;;;;;;5113522;28;20193;-40
2022/07/11 10:01:41;;;;;;;5.07;2.67;;;19.00;99.90;;;;;;5113567;28;20162;-40
2022/07/11 10:04:08;;;;;;;5.37;3.10;;;19.00;99.90;;;;;;5113197;28;20166;-41
2022/07/11 10:06:35;;;;;;;4.87;3.00;;;18.90;99.90;;;;;;5113774;28;20174;-38
2022/07/11 10:09:01;;;;;;;3.60;2.40;;;19.00;99.90;;;;;;5115287;28;20638;-40
2022/07/11 10:11:27;;;;;;;3.43;2.37;;;19.00;99.90;;;;;;5117079;28;20216;-40
2022/07/11 10:13:54;;;;;;;3.73;2.43;;;19.00;99.90;;;;;;5117729;28;20170;-39
2022/07/11 10:16:25;;;;;;;5.67;2.87;;;19.10;99.90;;;;;;5117029;28;20201;-40
2022/07/11 10:19:08;;;;;;;4.27;2.33;;;19.30;99.90;;;;;;5116635;28;20171;-40
2022/07/11 10:21:44;;;;;;;4.23;2.40;;;19.40;99.90;;;;;;5116727;28;20170;-40
2022/07/11 10:24:24;;;;;;;3.73;2.30;;;19.60;99.90;;;;;;5117319;28;20162;-40
2022/07/11 10:27:00;;;;;;;3.63;2.23;;;19.80;99.90;;;;;;5116888;28;20181;-40
2022/07/11 10:29:49;;;;;;;3.97;2.43;;;20.00;99.90;;;;;;5116751;28;20497;-40
2022/07/11 10:32:16;;;;;;;4.30;2.50;;;20.10;99.90;;;;;;5118113;28;20277;-39
2022/07/11 10:34:42;;;;;;;4.80;2.47;;;20.20;99.90;;;;;;5098125;28;20209;-40
2022/07/11 10:37:09;;;;;;;4.37;2.40;;;20.30;99.90;;;;;;5116375;28;20205;-38
2022/07/11 10:39:36;;;;;;;4.33;1.97;;;20.40;99.90;;;;;;5116549;28;20190;-41
2022/07/11 10:42:05;;;;;;;3.47;2.20;;;20.50;99.90;;;;;;5098359;28;20186;-41
2022/07/11 10:44:54;;;;;;;4.23;2.30;;;20.60;99.90;;;;;;5098263;28;20178;-39
2022/07/11 10:47:41;;;;;;;2.43;2.00;;;20.80;99.90;;;;;;5098015;28;20239;-42
2022/07/11 10:50:31;;;;;;;2.47;1.67;;;20.80;99.90;;;;;;5102715;28;20580;-39
2022/07/11 10:52:57;;;;;;;2.53;1.80;;;20.80;99.90;;;;;;5107347;28;20230;-43
2022/07/11 10:55:36;;;;;;;2.83;1.70;;;20.90;99.90;;;;;;5097986;28;20205;-42
2022/07/11 10:58:23;;;;;;;5.37;2.03;;;20.90;99.90;;;;;;5116384;28;20162;-44
2022/07/11 11:01:06;;;;;;;2.90;1.90;;;20.70;99.90;;;;;;5115877;28;20264;-41
2022/07/11 11:03:32;;;;;;;3.20;1.77;;;20.60;99.90;;;;;;5116235;28;20173;-44
2022/07/11 11:05:58;;;;;;;2.67;2.00;;;20.40;99.90;;;;;;5116127;28;20536;-44
2022/07/11 11:08:35;;;;;;;2.20;2.00;;;20.40;99.90;;;;;;5115774;28;20174;-44
2022/07/11 11:11:04;;;;;;;2.13;1.83;;;20.40;99.90;;;;;;5116010;28;20198;-44
2022/07/11 11:13:35;;;;;;;3.30;1.70;;;20.30;99.90;;;;;;5122253;28;20174;-41
2022/07/11 11:16:02;;;;;;;2.97;1.77;;;20.30;99.90;;;;;;5106368;28;20178;-39
2022/07/11 11:18:34;;;;;;;2.10;1.90;;;20.30;99.90;;;;;;5115867;28;20178;-41
2022/07/11 11:21:02;;;;;;;2.63;1.70;;;20.30;99.90;;;;;;5097054;28;20559;-40
2022/07/11 11:23:39;;;;;;;2.30;2.10;;;20.30;99.90;;;;;;5115691;28;20224;-40
2022/07/11 11:26:16;;;;;;;3.40;1.57;;;20.20;99.90;;;;;;5115433;28;20185;-43
2022/07/11 11:29:02;;;;;;;3.80;2.13;;;20.20;99.90;;;;;;5115556;28;20650;-43
2022/07/11 11:31:30;;;;;;;3.43;1.83;;;20.20;99.90;;;;;;5116493;28;20206;-43
2022/07/11 11:34:03;;;;;;;1.60;1.40;;;20.10;99.90;;;;;;5115770;28;20257;-43
2022/07/11 11:36:30;;;;;;;5.50;1.40;;;20.10;99.90;;;;;;5115341;28;20658;-43
2022/07/11 11:38:56;;;;;;;1.93;1.50;;;20.10;99.90;;;;;;5115198;28;20755;-43
2022/07/11 11:41:26;;;;;;;1.47;1.37;;;20.10;99.90;;;;;;5121352;28;20214;-40
2022/07/11 11:43:55;;;;;;;1.10;1.00;;;20.10;99.90;;;;;;5115114;28;20540;-38
2022/07/11 11:46:29;;;;;;;1.53;1.00;;;20.10;99.90;;;;;;5114926;28;20174;-40
2022/07/11 11:48:59;;;;;;;1.80;1.10;;;20.20;99.90;;;;;;5115018;28;20231;-39
2022/07/11 11:51:31;;;;;;;2.17;1.10;;;20.20;99.90;;;;;;5098593;28;20598;-39
2022/07/11 11:53:59;;;;;;;1.30;1.20;;;20.40;99.90;;;;;;5115810;28;20669;-40
2022/07/11 11:56:36;;;;;;;2.63;1.10;;;20.40;99.90;;;;;;5114961;28;20166;-40
2022/07/11 11:59:13;;;;;;;1.97;1.10;;;20.40;99.90;;;;;;5096690;28;20170;-39
2022/07/11 12:01:40;;;;;;;1.30;1.20;;;20.40;99.90;;;;;;5116799;28;20614;-42
2022/07/11 12:04:11;;;;;;;1.70;1.33;;;20.50;99.90;;;;;;5114751;28;20181;-44
2022/07/11 12:06:40;;;;;;;1.17;1.07;;;20.80;99.90;;;;;;5115003;28;20610;-44
2022/07/11 12:09:13;;;;;;;1.20;1.07;;;20.90;99.90;;;;;;5114892;28;20198;-43
2022/07/11 12:11:44;;;;;;;1.20;1.10;;;21.00;99.90;;;;;;5114752;28;20198;-43
2022/07/11 12:14:12;;;;;;;1.93;1.50;;;21.20;99.90;;;;;;5116893;28;20646;-42
2022/07/11 12:16:46;;;;;;;2.40;1.50;;;21.30;99.90;;;;;;5096192;28;20174;-44
2022/07/11 12:19:21;;;;;;;2.53;1.50;;;21.30;99.90;;;;;;5114281;28;20219;-40
2022/07/11 12:21:53;;;;;;;1.33;1.20;;;21.30;99.90;;;;;;5114313;28;20169;-44
2022/07/11 12:24:24;;;;;;;1.67;1.47;;;21.40;99.90;;;;;;5114719;28;20163;-44
2022/07/11 12:26:50;;;;;;;1.67;1.33;;;21.40;99.90;;;;;;5114271;28;20646;-43
2022/07/11 12:29:24;;;;;;;3.60;1.63;;;21.50;99.90;;;;;;5114165;28;20689;-42
2022/07/11 12:31:52;;;;;;;2.27;1.10;;;21.50;99.90;;;;;;5114341;28;20661;-44
2022/07/11 12:34:24;;;;;;;0.90;0.90;;;21.50;99.90;;;;;;5114130;28;20170;-43
2022/07/11 12:37:00;;;;;;;1.73;1.30;;;21.60;99.90;;;;;;5114143;28;20205;-43
2022/07/11 12:39:28;;;;;;;2.43;1.10;;;21.70;99.90;;;;;;5116877;28;20186;-44
2022/07/11 12:41:55;;;;;;;4.60;1.03;;;21.80;99.90;;;;;;5117263;28;20270;-42
2022/07/11 12:47:07;;;;;;;0.90;0.90;;;21.90;99.90;;;;;;5117220;28;20173;-45
2022/07/11 12:49:33;;;;;;;1.03;0.90;;;22.00;99.90;;;;;;5116626;28;20190;-43
2022/07/11 12:52:02;;;;;;;1.10;1.00;;;22.10;99.90;;;;;;5116977;28;20561;-44
2022/07/11 12:54:33;;;;;;;1.17;0.80;;;22.10;99.90;;;;;;5119154;28;20182;-44
2022/07/11 12:57:01;;;;;;;2.70;0.90;;;22.20;99.90;;;;;;5099257;28;20187;-44